Time;durP1;ratioP1;P1;durP2;ratioP2;P2;SDS_P1;SDS_P2;PMS_P1;PMS_P2;Temp;Humidity;BMP_temperature;BMP_pressure;BME280_temperature;BME280_humidity;BME280_pressure;Samples;Min_cycle;Max_cycle;Signal;HPM_P1;HPM_P2
2022/09/27 00:00:40;;;;;;;1.85;1.30;;;10.20;99.90;;;;;;6239427;22;20210;-77
2022/09/27 00:03:08;;;;;;;1.92;1.08;;;10.20;99.90;;;;;;6238824;22;20614;-77
2022/09/27 00:05:35;;;;;;;1.55;1.40;;;10.20;99.90;;;;;;6239188;22;20236;-77
2022/09/27 00:08:02;;;;;;;1.35;1.17;;;10.20;99.90;;;;;;6236770;22;20191;-77
2022/09/27 00:10:29;;;;;;;1.05;0.98;;;10.20;99.90;;;;;;6237441;23;20248;-77
2022/09/27 00:12:58;;;;;;;1.30;1.20;;;10.20;99.90;;;;;;6235212;22;20210;-77
2022/09/27 00:15:25;;;;;;;1.30;1.20;;;10.30;99.90;;;;;;6231437;22;20194;-77
2022/09/27 00:17:52;;;;;;;1.30;1.20;;;10.30;99.90;;;;;;6231019;23;20187;-77
2022/09/27 00:20:20;;;;;;;1.40;1.30;;;10.20;99.90;;;;;;6238827;23;20215;-77
2022/09/27 00:22:47;;;;;;;1.30;1.08;;;10.30;99.90;;;;;;6234847;22;20957;-77
2022/09/27 00:25:14;;;;;;;1.25;1.15;;;10.30;99.90;;;;;;6232947;22;20248;-77
2022/09/27 00:27:42;;;;;;;1.30;1.20;;;10.30;99.90;;;;;;6238621;23;20192;-77
2022/09/27 00:30:12;;;;;;;1.33;1.23;;;10.30;99.90;;;;;;6236016;23;20206;-77
2022/09/27 00:32:39;;;;;;;1.10;1.00;;;10.20;99.90;;;;;;6236300;22;20213;-77
2022/09/27 00:35:07;;;;;;;1.20;1.10;;;10.20;99.90;;;;;;6238722;23;20215;-77
2022/09/27 00:37:34;;;;;;;1.77;1.15;;;10.20;99.90;;;;;;6237246;22;20191;-77
2022/09/27 00:40:01;;;;;;;1.27;1.08;;;10.20;99.90;;;;;;6240541;22;20252;-77
2022/09/27 00:42:29;;;;;;;1.08;0.90;;;10.20;99.90;;;;;;6236657;22;20191;-77
2022/09/27 00:45:16;;;;;;;1.45;1.35;;;10.20;99.90;;;;;;6244802;22;20191;-77
2022/09/27 00:47:51;;;;;;;1.58;0.90;;;10.20;99.90;;;;;;6238790;22;20218;-77
2022/09/27 00:50:25;;;;;;;1.63;0.90;;;10.20;99.90;;;;;;6245817;22;20252;-77
2022/09/27 00:53:01;;;;;;;1.15;1.05;;;10.20;99.90;;;;;;6223709;22;20690;-77
2022/09/27 00:55:32;;;;;;;1.70;1.05;;;10.20;99.90;;;;;;6236785;22;20192;-77
2022/09/27 00:58:00;;;;;;;2.15;1.60;;;10.30;99.90;;;;;;6237042;22;20195;-77
2022/09/27 01:00:28;;;;;;;2.35;1.40;;;10.30;99.90;;;;;;6238641;22;20188;-77
2022/09/27 01:02:56;;;;;;;3.80;1.27;;;10.20;99.90;;;;;;6224242;22;20224;-77
2022/09/27 01:05:28;;;;;;;1.83;1.20;;;10.20;99.90;;;;;;6239699;22;20273;-77
2022/09/27 01:07:58;;;;;;;2.47;1.50;;;10.20;99.90;;;;;;6234638;22;20734;-77
2022/09/27 01:10:30;;;;;;;1.95;1.45;;;10.20;99.90;;;;;;6245932;22;20250;-77
2022/09/27 01:13:04;;;;;;;1.73;1.20;;;10.20;99.90;;;;;;6238090;22;20280;-77
2022/09/27 01:15:48;;;;;;;2.75;1.50;;;10.20;99.90;;;;;;6237501;23;20677;-77
2022/09/27 01:18:27;;;;;;;2.03;1.42;;;10.30;99.90;;;;;;6236858;22;20188;-77
2022/09/27 01:21:27;;;;;;;1.33;1.00;;;10.30;99.90;;;;;;6237980;22;20327;-77
2022/09/27 01:24:06;;;;;;;1.30;1.20;;;10.30;99.90;;;;;;6235239;23;20607;-77
2022/09/27 01:26:52;;;;;;;1.65;1.05;;;10.30;99.90;;;;;;6240005;23;20190;-77
2022/09/27 01:29:29;;;;;;;1.35;1.00;;;10.20;99.90;;;;;;6243376;22;20191;-77
2022/09/27 01:32:05;;;;;;;2.55;1.08;;;10.30;99.90;;;;;;6235327;22;20641;-77
2022/09/27 01:34:42;;;;;;;1.00;0.90;;;10.20;99.90;;;;;;6233405;23;20312;-77
2022/09/27 01:37:17;;;;;;;1.25;1.13;;;10.30;99.90;;;;;;6244288;22;20190;-77
2022/09/27 01:39:54;;;;;;;1.45;1.23;;;10.30;99.90;;;;;;6239466;23;20642;-77
2022/09/27 01:42:25;;;;;;;0.95;0.85;;;10.30;99.90;;;;;;6237508;22;20217;-77
2022/09/27 01:44:58;;;;;;;1.60;0.95;;;10.30;99.90;;;;;;6241613;22;20182;-77
2022/09/27 01:47:31;;;;;;;2.70;1.10;;;10.50;99.90;;;;;;6241401;22;20223;-77
2022/09/27 01:50:02;;;;;;;1.00;0.90;;;10.30;99.90;;;;;;6245353;22;20186;-77
2022/09/27 01:52:36;;;;;;;1.02;0.82;;;10.20;99.90;;;;;;6239923;22;20207;-77
2022/09/27 01:55:07;;;;;;;1.55;0.90;;;10.30;99.90;;;;;;6240468;22;20654;-77
2022/09/27 01:57:39;;;;;;;1.02;0.90;;;10.30;99.90;;;;;;6235825;23;20271;-77
2022/09/27 02:00:09;;;;;;;1.10;1.00;;;10.30;99.90;;;;;;6239721;23;20244;-77
2022/09/27 02:02:41;;;;;;;1.95;1.10;;;10.30;99.90;;;;;;6233699;22;20212;-77
2022/09/27 02:05:13;;;;;;;0.85;0.85;;;10.30;99.90;;;;;;6238527;23;20666;-77
2022/09/27 02:07:45;;;;;;;1.05;0.90;;;10.30;99.90;;;;;;6238188;23;20800;-77
2022/09/27 02:10:17;;;;;;;1.00;0.90;;;10.30;99.90;;;;;;6236804;22;20257;-77
2022/09/27 02:12:51;;;;;;;3.15;1.13;;;10.20;99.90;;;;;;6235372;22;20213;-77
2022/09/27 02:15:19;;;;;;;2.05;1.23;;;10.20;99.90;;;;;;6231758;22;20256;-77
2022/09/27 02:17:56;;;;;;;1.25;1.15;;;10.20;99.90;;;;;;6231602;23;20236;-77
2022/09/27 02:20:29;;;;;;;1.35;1.00;;;10.20;99.90;;;;;;6250478;22;20697;-77
2022/09/27 02:23:09;;;;;;;0.90;0.90;;;10.20;99.90;;;;;;6241527;22;20214;-77
2022/09/27 02:25:42;;;;;;;3.28;1.17;;;10.20;99.90;;;;;;6238398;22;20237;-77
2022/09/27 02:28:19;;;;;;;1.55;1.00;;;10.20;99.90;;;;;;6237378;22;20269;-77
2022/09/27 02:30:46;;;;;;;1.70;1.20;;;10.10;99.90;;;;;;6236400;22;20251;-77
2022/09/27 02:33:15;;;;;;;2.03;1.10;;;10.10;99.90;;;;;;6233574;22;20208;-77
2022/09/27 02:35:42;;;;;;;2.97;1.00;;;10.10;99.90;;;;;;6243270;22;20735;-77
2022/09/27 02:38:10;;;;;;;1.38;1.10;;;10.10;99.90;;;;;;6246048;22;20243;-77
2022/09/27 02:40:43;;;;;;;1.35;1.00;;;10.10;99.90;;;;;;6240987;22;20199;-76
2022/09/27 02:43:12;;;;;;;4.53;1.15;;;10.10;99.90;;;;;;6234950;22;20206;-77
2022/09/27 02:45:51;;;;;;;1.73;1.00;;;10.10;99.90;;;;;;6237439;22;20279;-77
2022/09/27 02:48:29;;;;;;;2.25;1.10;;;10.00;99.90;;;;;;6239929;22;20192;-77
2022/09/27 02:51:11;;;;;;;2.35;1.08;;;10.00;99.90;;;;;;6244133;22;20191;-77
2022/09/27 02:53:54;;;;;;;2.63;0.93;;;9.90;99.90;;;;;;6233501;23;20314;-77
2022/09/27 02:56:31;;;;;;;1.42;1.10;;;9.90;99.90;;;;;;6235923;23;20226;-77
2022/09/27 02:59:06;;;;;;;2.90;1.17;;;9.90;99.90;;;;;;6235735;22;20266;-77
2022/09/27 03:01:40;;;;;;;3.30;1.40;;;9.80;99.90;;;;;;6232203;22;20222;-76
2022/09/27 03:04:15;;;;;;;3.63;1.30;;;9.70;99.90;;;;;;6238959;22;20222;-76
2022/09/27 03:06:46;;;;;;;3.35;1.33;;;9.70;99.90;;;;;;6247072;22;20281;-77
2022/09/27 03:09:19;;;;;;;3.85;1.70;;;9.60;99.90;;;;;;6242741;22;20190;-77
2022/09/27 03:11:46;;;;;;;2.00;1.40;;;9.60;99.90;;;;;;6235669;22;20648;-77
2022/09/27 03:14:13;;;;;;;2.40;1.30;;;9.60;99.90;;;;;;6239771;22;20224;-77
2022/09/27 03:16:40;;;;;;;4.72;1.50;;;9.60;99.90;;;;;;6244888;22;20293;-77
2022/09/27 03:19:09;;;;;;;3.10;1.35;;;9.60;99.90;;;;;;6238738;22;20222;-77
2022/09/27 03:21:36;;;;;;;2.00;1.60;;;9.50;99.90;;;;;;6236544;22;20191;-77
2022/09/27 03:24:03;;;;;;;4.68;1.92;;;9.50;99.90;;;;;;6243736;22;20208;-77
2022/09/27 03:26:30;;;;;;;3.78;2.10;;;9.50;99.90;;;;;;6234353;23;20791;-77
2022/09/27 03:28:57;;;;;;;4.22;1.60;;;9.60;99.90;;;;;;6264179;22;20263;-77
2022/09/27 03:31:24;;;;;;;4.28;1.67;;;9.50;99.90;;;;;;6240200;22;20228;-77
2022/09/27 03:33:51;;;;;;;3.97;2.15;;;9.50;99.90;;;;;;6238395;22;20651;-77
2022/09/27 03:36:20;;;;;;;5.82;2.13;;;9.50;99.90;;;;;;6245812;22;20225;-77
2022/09/27 03:38:47;;;;;;;3.92;1.80;;;9.50;99.90;;;;;;6243633;22;20194;-77
2022/09/27 03:41:14;;;;;;;3.35;1.90;;;9.60;99.90;;;;;;6237958;22;20274;-77
2022/09/27 03:43:41;;;;;;;4.97;2.15;;;9.60;99.90;;;;;;6237667;22;20267;-78
2022/09/27 03:46:08;;;;;;;3.60;1.90;;;9.60;99.90;;;;;;6233599;22;20201;-78
2022/09/27 03:48:35;;;;;;;3.85;2.00;;;9.60;99.90;;;;;;6230262;22;20214;-80
2022/09/27 03:51:03;;;;;;;3.60;2.25;;;9.60;99.90;;;;;;6237510;22;20190;-83
2022/09/27 03:53:31;;;;;;;7.07;2.63;;;9.60;99.90;;;;;;6235152;22;20224;-80
2022/09/27 03:55:59;;;;;;;4.55;2.80;;;9.70;99.90;;;;;;6234277;22;20215;-79
2022/09/27 03:58:26;;;;;;;4.15;2.90;;;9.70;99.90;;;;;;6237069;22;20193;-79
2022/09/27 04:00:53;;;;;;;2.92;2.20;;;9.70;99.90;;;;;;6224659;22;20296;-78
2022/09/27 04:03:20;;;;;;;4.72;2.58;;;9.70;99.90;;;;;;6217865;22;20218;-77
2022/09/27 04:05:47;;;;;;;3.33;2.00;;;9.70;99.90;;;;;;6235664;23;20195;-77
2022/09/27 04:08:14;;;;;;;4.65;2.70;;;9.80;99.90;;;;;;6237935;22;20234;-82
2022/09/27 04:10:43;;;;;;;3.40;2.55;;;9.80;99.90;;;;;;6234736;23;20554;-77
2022/09/27 04:13:10;;;;;;;4.47;2.80;;;9.90;99.90;;;;;;6232935;22;20225;-78
2022/09/27 04:15:38;;;;;;;4.70;2.15;;;9.90;99.90;;;;;;6233736;22;20268;-78
2022/09/27 04:18:05;;;;;;;6.95;2.45;;;9.90;99.90;;;;;;6235238;22;20219;-75
2022/09/27 04:20:32;;;;;;;5.93;2.17;;;10.00;99.90;;;;;;6243052;22;20195;-76
2022/09/27 04:23:00;;;;;;;4.95;2.42;;;10.00;99.90;;;;;;6236146;22;20240;-76
2022/09/27 04:25:28;;;;;;;3.65;2.30;;;9.90;99.90;;;;;;6231007;22;20646;-76
2022/09/27 04:27:56;;;;;;;5.20;2.25;;;9.90;99.90;;;;;;6234794;22;20646;-76
2022/09/27 04:30:23;;;;;;;4.10;2.45;;;9.90;99.90;;;;;;6228835;22;20255;-86
2022/09/27 04:32:51;;;;;;;4.05;2.22;;;9.90;99.90;;;;;;6216283;22;20769;-78
2022/09/27 04:38:03;;;;;;;5.35;2.22;;;9.90;99.90;;;;;;6231140;22;20800;-73
2022/09/27 04:40:30;;;;;;;4.82;2.42;;;9.90;99.90;;;;;;6233181;22;20252;-73
2022/09/27 04:42:58;;;;;;;6.20;2.45;;;10.00;99.90;;;;;;6234742;22;20253;-72
2022/09/27 04:45:25;;;;;;;5.40;2.45;;;10.10;99.90;;;;;;6236537;22;20628;-72
2022/09/27 04:47:52;;;;;;;3.85;2.55;;;10.10;99.90;;;;;;6235262;22;20204;-72
2022/09/27 04:50:19;;;;;;;5.40;2.30;;;10.20;99.90;;;;;;6230177;22;20181;-72
2022/09/27 04:52:50;;;;;;;5.57;2.28;;;10.20;99.90;;;;;;6229695;22;20562;-78
2022/09/27 04:55:17;;;;;;;4.60;2.55;;;10.20;99.90;;;;;;6234805;22;20234;-78
2022/09/27 04:57:44;;;;;;;3.85;2.35;;;10.10;99.90;;;;;;6235474;22;20262;-78
2022/09/27 05:00:14;;;;;;;4.47;2.20;;;9.90;99.90;;;;;;6230482;22;20211;-79
2022/09/27 05:02:42;;;;;;;3.50;1.90;;;9.80;99.90;;;;;;6220970;22;20234;-79
2022/09/27 05:05:10;;;;;;;4.03;1.90;;;9.80;99.90;;;;;;6236609;22;20187;-77
2022/09/27 05:07:38;;;;;;;2.15;1.73;;;9.80;99.90;;;;;;6218096;22;20657;-77
2022/09/27 05:10:06;;;;;;;4.72;2.33;;;9.80;99.90;;;;;;6231957;22;20240;-78
2022/09/27 05:12:34;;;;;;;5.30;1.60;;;9.80;99.90;;;;;;6236158;22;20967;-77
2022/09/27 05:15:03;;;;;;;2.85;1.50;;;9.80;99.90;;;;;;6235726;22;20207;-78
2022/09/27 05:17:32;;;;;;;1.98;1.73;;;9.80;99.90;;;;;;6237703;23;20191;-78
2022/09/27 05:20:00;;;;;;;4.43;2.47;;;9.80;99.90;;;;;;6238577;22;20190;-78
2022/09/27 05:22:27;;;;;;;3.70;1.60;;;9.90;99.90;;;;;;6227435;22;20210;-77
2022/09/27 05:24:54;;;;;;;2.90;1.83;;;9.80;99.90;;;;;;6224851;22;20263;-78
2022/09/27 05:27:21;;;;;;;4.38;1.60;;;9.80;99.90;;;;;;6229752;22;20195;-77
2022/09/27 05:29:49;;;;;;;2.65;1.70;;;9.80;99.90;;;;;;6237379;22;20215;-78
2022/09/27 05:32:17;;;;;;;2.88;1.45;;;9.80;99.90;;;;;;6234581;22;20311;-78
2022/09/27 05:34:46;;;;;;;4.15;1.75;;;9.70;99.90;;;;;;6235829;22;20259;-77
2022/09/27 05:37:13;;;;;;;1.95;1.20;;;9.70;99.90;;;;;;6236661;22;20219;-78
2022/09/27 05:39:40;;;;;;;4.57;1.40;;;9.60;99.90;;;;;;6233404;22;20184;-78
2022/09/27 05:42:09;;;;;;;3.17;1.70;;;9.60;99.90;;;;;;6232652;22;20214;-79
2022/09/27 05:44:37;;;;;;;2.90;1.80;;;9.60;99.90;;;;;;6232004;22;20192;-78
2022/09/27 05:47:05;;;;;;;2.50;1.60;;;9.60;99.90;;;;;;6239467;22;20630;-78
2022/09/27 05:49:32;;;;;;;3.63;1.55;;;9.60;99.90;;;;;;6236584;22;20241;-77
2022/09/27 05:52:01;;;;;;;1.80;1.45;;;9.60;99.90;;;;;;6232220;22;20217;-79
2022/09/27 05:54:28;;;;;;;2.92;1.58;;;9.60;99.90;;;;;;6238413;22;20198;-79
2022/09/27 05:56:57;;;;;;;2.75;1.45;;;9.60;99.90;;;;;;6241411;22;20294;-78
2022/09/27 05:59:25;;;;;;;2.58;1.60;;;9.60;99.90;;;;;;6235102;22;20588;-79
2022/09/27 06:01:52;;;;;;;4.03;2.00;;;9.70;99.90;;;;;;6229376;22;20203;-79
2022/09/27 06:04:20;;;;;;;2.72;1.50;;;9.70;99.90;;;;;;6230021;22;20184;-79
2022/09/27 06:06:47;;;;;;;4.18;1.80;;;9.70;99.90;;;;;;6237680;22;20653;-78
2022/09/27 06:09:17;;;;;;;3.40;1.80;;;9.70;99.90;;;;;;6237177;23;20225;-78
2022/09/27 06:11:44;;;;;;;2.88;1.83;;;9.80;99.90;;;;;;6234648;22;20675;-78
2022/09/27 06:14:11;;;;;;;3.67;1.85;;;9.80;99.90;;;;;;6236578;22;20186;-78
2022/09/27 06:16:38;;;;;;;3.53;1.75;;;9.80;99.90;;;;;;6224398;22;20266;-78
2022/09/27 06:19:05;;;;;;;3.03;1.92;;;9.90;99.90;;;;;;6220869;23;20950;-78
2022/09/27 06:21:33;;;;;;;2.88;1.33;;;9.90;99.90;;;;;;6235940;22;20205;-78
2022/09/27 06:24:00;;;;;;;2.78;1.80;;;9.90;99.90;;;;;;6236190;22;20648;-78
2022/09/27 06:26:28;;;;;;;2.50;1.60;;;9.90;99.90;;;;;;6236160;22;20279;-78
2022/09/27 06:28:56;;;;;;;2.85;1.55;;;9.80;99.90;;;;;;6237820;22;20186;-78
2022/09/27 06:31:23;;;;;;;2.85;1.52;;;9.80;99.90;;;;;;6234910;23;20198;-78
2022/09/27 06:33:50;;;;;;;1.60;1.50;;;9.80;99.90;;;;;;6234254;22;20203;-78
2022/09/27 06:36:18;;;;;;;2.20;1.70;;;9.80;99.90;;;;;;6244678;22;20212;-78
2022/09/27 06:38:47;;;;;;;2.35;1.80;;;9.80;99.90;;;;;;6235781;23;20180;-75
2022/09/27 06:41:14;;;;;;;1.90;1.60;;;9.80;99.90;;;;;;6230013;22;20274;-75
2022/09/27 06:43:42;;;;;;;2.85;1.20;;;9.70;99.90;;;;;;6237011;23;20187;-75
2022/09/27 06:46:09;;;;;;;1.85;1.40;;;9.80;99.90;;;;;;6239207;22;20196;-77
2022/09/27 06:48:38;;;;;;;1.55;1.15;;;9.80;99.90;;;;;;6231332;22;20179;-77
2022/09/27 06:51:06;;;;;;;2.25;1.10;;;9.80;99.90;;;;;;6231199;22;20565;-78
2022/09/27 06:53:33;;;;;;;1.50;1.20;;;9.80;99.90;;;;;;6230368;22;20203;-78
2022/09/27 06:56:00;;;;;;;1.55;1.20;;;9.80;99.90;;;;;;6225942;22;20215;-77
2022/09/27 07:01:14;;;;;;;1.55;1.25;;;9.70;99.90;;;;;;6231258;22;20198;-77
2022/09/27 07:03:43;;;;;;;1.30;0.80;;;9.70;99.90;;;;;;6230980;22;20602;-76
2022/09/27 07:06:16;;;;;;;1.70;1.05;;;9.60;99.90;;;;;;6235522;22;20621;-76
2022/09/27 07:08:43;;;;;;;1.80;0.80;;;9.50;99.90;;;;;;6232036;22;20230;-74
2022/09/27 07:11:11;;;;;;;1.33;0.90;;;9.40;99.90;;;;;;6236395;22;20287;-76
2022/09/27 07:13:41;;;;;;;0.80;0.70;;;9.30;99.90;;;;;;6232120;22;20689;-76
2022/09/27 07:16:11;;;;;;;0.85;0.85;;;9.20;99.90;;;;;;6210336;23;20206;-76
2022/09/27 07:18:40;;;;;;;1.00;0.90;;;9.20;99.90;;;;;;6234789;23;20600;-76
2022/09/27 07:21:08;;;;;;;1.38;0.80;;;9.20;99.90;;;;;;6235844;22;20183;-75
2022/09/27 07:23:36;;;;;;;1.10;0.80;;;9.20;99.90;;;;;;6238354;22;20264;-76
2022/09/27 07:26:04;;;;;;;1.20;0.80;;;9.20;99.90;;;;;;6239399;22;20194;-76
2022/09/27 07:28:31;;;;;;;0.80;0.80;;;9.30;99.90;;;;;;6243991;22;20195;-76
2022/09/27 07:30:58;;;;;;;1.00;0.80;;;9.30;99.90;;;;;;6228750;23;20834;-76
2022/09/27 07:33:26;;;;;;;1.98;1.10;;;9.40;99.90;;;;;;6238118;22;20625;-76
2022/09/27 07:35:55;;;;;;;1.00;0.80;;;9.40;99.90;;;;;;6253029;22;20212;-76
2022/09/27 07:38:22;;;;;;;2.33;0.80;;;9.50;99.90;;;;;;6242676;22;20205;-76
2022/09/27 07:40:49;;;;;;;1.67;0.73;;;9.40;99.90;;;;;;6253779;22;20186;-76
2022/09/27 07:43:16;;;;;;;1.10;1.00;;;9.40;99.90;;;;;;6240215;22;20259;-75
2022/09/27 07:45:43;;;;;;;1.50;1.17;;;9.40;99.90;;;;;;6239561;22;20182;-76
2022/09/27 07:48:14;;;;;;;1.08;0.98;;;9.40;99.90;;;;;;6236723;22;20231;-76
2022/09/27 07:50:41;;;;;;;1.50;1.20;;;9.40;99.90;;;;;;6227201;23;20634;-76
2022/09/27 07:53:11;;;;;;;1.30;1.20;;;9.40;99.90;;;;;;6231641;22;20239;-76
2022/09/27 07:55:38;;;;;;;1.42;1.02;;;9.50;99.90;;;;;;6234153;22;20291;-76
2022/09/27 07:58:07;;;;;;;1.52;1.25;;;9.60;99.90;;;;;;6223258;22;20228;-77
2022/09/27 08:00:35;;;;;;;1.33;1.10;;;9.80;99.90;;;;;;6248827;22;20665;-77
2022/09/27 08:03:05;;;;;;;1.50;1.23;;;10.10;99.90;;;;;;6238695;22;20212;-77
2022/09/27 08:05:34;;;;;;;3.08;1.30;;;10.40;99.90;;;;;;6237125;23;20188;-77
2022/09/27 08:08:02;;;;;;;1.48;1.30;;;10.70;99.90;;;;;;6235812;22;20196;-77
2022/09/27 08:10:31;;;;;;;2.08;1.27;;;11.00;99.90;;;;;;6228343;22;20231;-77
2022/09/27 08:12:58;;;;;;;1.50;1.40;;;11.30;99.90;;;;;;6229637;22;20200;-78
2022/09/27 08:15:27;;;;;;;1.50;1.40;;;11.40;99.90;;;;;;6236055;22;20184;-78
2022/09/27 08:17:55;;;;;;;1.40;1.25;;;11.50;99.90;;;;;;6236465;22;20188;-78
2022/09/27 08:20:22;;;;;;;2.10;1.65;;;11.30;99.90;;;;;;6236369;22;20176;-79
2022/09/27 08:22:49;;;;;;;2.08;1.60;;;11.30;99.90;;;;;;6238555;22;20686;-77
2022/09/27 08:25:16;;;;;;;1.40;1.30;;;11.00;99.90;;;;;;6235656;22;20249;-78
2022/09/27 08:27:54;;;;;;;2.70;1.55;;;10.90;99.90;;;;;;6258034;22;20262;-77
2022/09/27 08:30:21;;;;;;;1.48;1.38;;;10.90;99.90;;;;;;6235014;22;20213;-78
2022/09/27 08:32:48;;;;;;;1.88;1.52;;;11.00;99.90;;;;;;6229152;22;21841;-78
2022/09/27 08:35:15;;;;;;;1.70;1.55;;;11.10;99.90;;;;;;6235904;22;20234;-78
2022/09/27 08:37:42;;;;;;;1.63;1.50;;;11.20;99.90;;;;;;6239149;22;20288;-78
2022/09/27 08:40:16;;;;;;;1.80;1.38;;;11.20;99.90;;;;;;6238385;22;20257;-79
2022/09/27 08:42:50;;;;;;;1.20;1.10;;;11.20;99.90;;;;;;6236929;22;20745;-78
2022/09/27 08:45:22;;;;;;;3.45;1.42;;;11.40;99.90;;;;;;6230487;22;20176;-77
2022/09/27 08:47:53;;;;;;;1.35;1.08;;;11.60;99.90;;;;;;6250976;22;20268;-77
2022/09/27 08:50:27;;;;;;;3.35;1.25;;;11.50;99.90;;;;;;6236827;23;20193;-77
2022/09/27 08:52:59;;;;;;;2.13;1.40;;;11.40;99.90;;;;;;6238048;23;20212;-78
2022/09/27 08:55:36;;;;;;;2.28;1.30;;;11.30;99.90;;;;;;6235966;23;20350;-78
2022/09/27 08:58:13;;;;;;;1.65;1.30;;;11.20;99.90;;;;;;6238498;23;20184;-78
2022/09/27 09:00:41;;;;;;;2.22;1.40;;;11.10;99.90;;;;;;6240890;22;20704;-77
2022/09/27 09:03:18;;;;;;;1.95;1.60;;;11.00;99.90;;;;;;6244002;22;20663;-77
2022/09/27 09:05:56;;;;;;;1.63;1.13;;;11.00;99.90;;;;;;6230654;22;20322;-77
2022/09/27 09:08:32;;;;;;;4.00;1.55;;;10.80;99.90;;;;;;6232932;22;20623;-78
2022/09/27 09:14:31;;;;;;;1.60;1.25;;;10.80;99.90;;;;;;6237390;22;20237;-77
2022/09/27 09:17:09;;;;;;;3.15;1.58;;;10.90;99.90;;;;;;6227358;22;20205;-78
2022/09/27 09:19:51;;;;;;;3.33;1.83;;;10.80;99.90;;;;;;6237054;23;20247;-77
2022/09/27 09:22:35;;;;;;;1.25;1.13;;;10.90;99.90;;;;;;6234599;22;20226;-77
2022/09/27 09:25:18;;;;;;;3.05;1.50;;;10.90;99.90;;;;;;6230967;23;20547;-77
2022/09/27 09:27:54;;;;;;;1.85;1.33;;;11.00;99.90;;;;;;6232323;22;20704;-77
2022/09/27 09:30:24;;;;;;;1.88;1.27;;;11.10;99.90;;;;;;6233648;22;20188;-77
2022/09/27 09:33:08;;;;;;;1.35;1.05;;;11.50;99.90;;;;;;6249787;22;20213;-77
2022/09/27 09:35:41;;;;;;;1.58;1.20;;;11.80;99.90;;;;;;6237985;22;20212;-76
2022/09/27 09:38:12;;;;;;;3.10;1.45;;;12.10;99.90;;;;;;6234123;22;20250;-77
2022/09/27 09:40:44;;;;;;;2.85;1.48;;;12.50;99.90;;;;;;6233606;22;20176;-76
2022/09/27 09:43:15;;;;;;;2.78;1.13;;;12.50;99.90;;;;;;6235746;22;20208;-76
2022/09/27 09:45:48;;;;;;;1.45;1.10;;;12.60;99.90;;;;;;6225107;22;20948;-77
2022/09/27 09:48:23;;;;;;;2.10;1.20;;;12.60;99.90;;;;;;6231947;22;20544;-76
2022/09/27 09:50:54;;;;;;;1.45;1.20;;;12.60;99.90;;;;;;6225376;23;20236;-77
2022/09/27 09:53:39;;;;;;;2.42;1.60;;;12.60;99.90;;;;;;6234353;22;20699;-77
2022/09/27 09:56:14;;;;;;;1.50;1.40;;;12.40;99.90;;;;;;6229781;22;20204;-76
2022/09/27 09:58:47;;;;;;;2.67;1.30;;;12.40;99.90;;;;;;6234112;22;20184;-76
2022/09/27 10:01:19;;;;;;;3.42;1.40;;;12.40;99.90;;;;;;6236540;22;20249;-77
2022/09/27 10:03:46;;;;;;;2.50;1.65;;;12.40;99.90;;;;;;6228828;22;20193;-77
2022/09/27 10:06:15;;;;;;;2.42;1.40;;;12.30;99.90;;;;;;6234826;22;20196;-77
2022/09/27 10:08:43;;;;;;;1.75;1.42;;;12.40;99.90;;;;;;6233453;22;20803;-77
2022/09/27 10:11:19;;;;;;;2.47;1.85;;;12.30;99.90;;;;;;6235783;22;20245;-75
2022/09/27 10:13:47;;;;;;;3.63;1.73;;;12.40;99.90;;;;;;6235370;23;20188;-78
2022/09/27 10:16:18;;;;;;;2.05;1.38;;;12.70;99.90;;;;;;6232545;22;20232;-77
2022/09/27 10:18:47;;;;;;;3.55;1.73;;;12.60;99.90;;;;;;6231771;22;20244;-77
2022/09/27 10:21:19;;;;;;;1.47;1.33;;;12.70;99.90;;;;;;6238426;22;20231;-77
2022/09/27 10:24:08;;;;;;;1.95;1.30;;;12.50;99.90;;;;;;6235880;22;20476;-77
2022/09/27 10:26:37;;;;;;;2.25;1.60;;;12.40;99.90;;;;;;6237523;22;20661;-77
2022/09/27 10:29:28;;;;;;;2.17;1.42;;;12.80;99.90;;;;;;6236055;23;20184;-76
2022/09/27 10:31:58;;;;;;;2.60;1.75;;;12.50;99.90;;;;;;6235508;22;20216;-77
2022/09/27 10:34:30;;;;;;;2.28;1.40;;;12.40;99.90;;;;;;6232131;22;20189;-77
2022/09/27 10:37:06;;;;;;;2.67;1.45;;;12.30;99.90;;;;;;6232562;22;20213;-77
2022/09/27 10:39:35;;;;;;;3.38;1.20;;;12.20;99.90;;;;;;6234857;22;20183;-77
2022/09/27 10:42:03;;;;;;;1.90;1.10;;;12.20;99.90;;;;;;6237070;22;20568;-77
2022/09/27 10:44:31;;;;;;;2.95;1.50;;;12.00;99.90;;;;;;6228638;23;20177;-73
2022/09/27 10:47:06;;;;;;;3.95;1.70;;;11.90;99.90;;;;;;6234875;23;20640;-79
2022/09/27 10:49:36;;;;;;;2.97;1.65;;;11.90;99.90;;;;;;6232272;22;20181;-77
2022/09/27 10:52:06;;;;;;;2.05;1.17;;;11.90;99.90;;;;;;6237912;22;20208;-77
2022/09/27 10:54:35;;;;;;;3.67;1.15;;;11.90;99.90;;;;;;6237844;22;20188;-77
2022/09/27 10:57:05;;;;;;;2.00;1.30;;;11.90;99.90;;;;;;6235135;23;20209;-77
2022/09/27 10:59:36;;;;;;;1.60;1.27;;;11.90;99.90;;;;;;6236539;23;20193;-77
2022/09/27 11:02:17;;;;;;;1.67;1.00;;;11.90;99.90;;;;;;6236086;22;20560;-77
2022/09/27 11:05:04;;;;;;;6.85;1.60;;;11.90;99.90;;;;;;6235185;22;20184;-77
2022/09/27 11:07:32;;;;;;;1.98;1.50;;;11.90;99.90;;;;;;6225022;22;20192;-77
2022/09/27 11:10:01;;;;;;;3.10;1.58;;;11.90;99.90;;;;;;6231971;22;20212;-78
2022/09/27 11:12:30;;;;;;;3.38;1.58;;;11.80;99.90;;;;;;6242130;22;20714;-77
2022/09/27 11:15:01;;;;;;;3.15;1.55;;;11.80;99.90;;;;;;6233195;22;20651;-77
2022/09/27 11:17:39;;;;;;;2.08;1.50;;;11.70;99.90;;;;;;6234949;22;20200;-78
2022/09/27 11:20:15;;;;;;;3.38;1.80;;;11.60;99.90;;;;;;6231048;22;20188;-78
2022/09/27 11:23:12;;;;;;;4.20;1.80;;;11.60;99.90;;;;;;6235990;22;20180;-78
2022/09/27 11:25:49;;;;;;;2.13;1.80;;;11.50;99.90;;;;;;6232941;22;20188;-78
2022/09/27 11:28:26;;;;;;;2.60;1.83;;;11.40;99.90;;;;;;6228815;22;20237;-78
2022/09/27 11:31:03;;;;;;;1.90;1.70;;;11.40;99.90;;;;;;6227116;23;20205;-78
2022/09/27 11:33:49;;;;;;;4.35;2.30;;;11.30;99.90;;;;;;6236678;22;20176;-78
2022/09/27 11:36:28;;;;;;;3.13;2.63;;;11.30;99.90;;;;;;6233819;22;20181;-78
2022/09/27 11:39:03;;;;;;;5.38;3.40;;;11.40;99.90;;;;;;6233458;22;20244;-78
2022/09/27 11:41:47;;;;;;;3.40;2.53;;;11.50;99.90;;;;;;6248120;22;20299;-78
2022/09/27 11:44:29;;;;;;;5.20;2.67;;;11.50;99.90;;;;;;6246893;22;20180;-78
2022/09/27 11:47:09;;;;;;;3.83;3.13;;;11.50;99.90;;;;;;6237692;22;20188;-77
2022/09/27 11:50:03;;;;;;;5.35;3.00;;;11.30;99.90;;;;;;6230323;22;20837;-76
2022/09/27 11:52:46;;;;;;;5.13;2.20;;;11.00;99.90;;;;;;6226563;23;20187;-76
2022/09/27 11:55:23;;;;;;;4.55;1.92;;;10.60;99.90;;;;;;6234766;22;20187;-81
2022/09/27 11:58:00;;;;;;;2.95;2.28;;;10.30;99.90;;;;;;6234456;22;20755;-74
2022/09/27 12:00:39;;;;;;;2.47;1.20;;;10.00;99.90;;;;;;6235103;22;20289;-76
2022/09/27 12:03:28;;;;;;;0.95;0.82;;;9.80;99.90;;;;;;6234617;22;20190;-77
2022/09/27 12:06:11;;;;;;;1.55;1.17;;;9.40;99.90;;;;;;6229653;22;20208;-77
2022/09/27 12:08:58;;;;;;;1.13;1.02;;;9.20;99.90;;;;;;6233100;22;20213;-77
2022/09/27 12:11:30;;;;;;;2.17;1.00;;;9.10;99.90;;;;;;6225457;22;20233;-77
2022/09/27 12:14:01;;;;;;;1.20;0.90;;;9.10;99.90;;;;;;6236909;22;20194;-77
2022/09/27 12:16:31;;;;;;;1.13;0.80;;;9.20;99.90;;;;;;6236918;22;20558;-77
2022/09/27 12:19:00;;;;;;;1.67;1.00;;;9.30;99.90;;;;;;6234692;22;20283;-78
2022/09/27 12:21:31;;;;;;;1.10;0.90;;;9.30;99.90;;;;;;6227590;22;20205;-77
2022/09/27 12:23:58;;;;;;;1.92;0.82;;;9.30;99.90;;;;;;6227629;22;20237;-79
2022/09/27 12:26:29;;;;;;;1.20;0.70;;;9.30;99.90;;;;;;6232008;22;20216;-79
2022/09/27 12:28:59;;;;;;;1.30;0.75;;;9.30;99.90;;;;;;6228320;22;20247;-76
2022/09/27 12:31:32;;;;;;;0.80;0.70;;;9.30;99.90;;;;;;6244822;22;20786;-75
2022/09/27 12:34:08;;;;;;;1.30;0.90;;;9.30;99.90;;;;;;6228791;23;20192;-76
2022/09/27 12:36:43;;;;;;;1.23;0.85;;;9.30;99.90;;;;;;6233362;22;20266;-76
2022/09/27 12:39:17;;;;;;;1.13;0.80;;;9.30;99.90;;;;;;6234273;23;20191;-75
2022/09/27 12:41:51;;;;;;;1.10;1.00;;;9.30;99.90;;;;;;6236198;22;20214;-74
2022/09/27 12:44:18;;;;;;;2.40;0.95;;;9.30;99.90;;;;;;6237321;23;20228;-75
2022/09/27 12:46:59;;;;;;;1.10;0.93;;;9.30;99.90;;;;;;6266111;22;20269;-75
2022/09/27 12:49:34;;;;;;;1.60;1.02;;;9.30;99.90;;;;;;6227281;22;20265;-75
2022/09/27 12:52:07;;;;;;;1.80;0.95;;;9.30;99.90;;;;;;6214644;23;20544;-74
2022/09/27 12:54:58;;;;;;;1.15;1.00;;;9.40;99.90;;;;;;6226204;22;20179;-75
2022/09/27 12:57:39;;;;;;;1.27;1.00;;;9.40;99.90;;;;;;6220021;22;20249;-78
2022/09/27 13:00:13;;;;;;;1.23;1.05;;;9.40;99.90;;;;;;6234829;22;20290;-78
2022/09/27 13:03:09;;;;;;;1.35;1.05;;;9.50;99.90;;;;;;6240066;23;20190;-77
2022/09/27 13:06:25;;;;;;;1.92;1.00;;;9.60;99.90;;;;;;6240495;23;20265;-77
2022/09/27 13:09:37;;;;;;;1.70;1.10;;;9.60;99.90;;;;;;6232089;23;20237;-78
2022/09/27 13:12:10;;;;;;;1.88;1.20;;;9.60;99.90;;;;;;6158444;22;20206;-78
2022/09/27 13:14:44;;;;;;;1.90;1.10;;;9.70;99.90;;;;;;6227675;22;20178;-77
2022/09/27 13:17:48;;;;;;;2.72;1.00;;;9.70;99.90;;;;;;6227792;22;20258;-78
2022/09/27 13:20:41;;;;;;;1.77;1.67;;;9.70;99.90;;;;;;6229736;22;20197;-78
2022/09/27 13:23:57;;;;;;;1.73;1.33;;;9.60;99.90;;;;;;6220992;22;20196;-78